createdAt,value
2018-06-16T00:00:47.866Z,15.40
2018-06-16T00:05:51.712Z,15.40
2018-06-16T00:10:55.008Z,15.40
2018-06-16T00:15:58.267Z,15.20
2018-06-16T00:21:01.603Z,15.20
2018-06-16T00:26:04.972Z,15.20
2018-06-16T00:31:08.325Z,15.10
2018-06-16T00:36:11.563Z,15.00
2018-06-16T00:41:14.827Z,15.10
2018-06-16T00:46:18.051Z,15.00
2018-06-16T00:51:21.330Z,14.80
2018-06-16T00:56:24.618Z,14.70
2018-06-16T01:06:30.892Z,14.50
2018-06-16T01:11:34.151Z,14.50
2018-06-16T01:16:37.409Z,14.70
2018-06-16T01:21:40.719Z,14.60
2018-06-16T01:26:43.985Z,14.70
2018-06-16T01:31:47.246Z,14.70
2018-06-16T01:36:50.512Z,14.40
2018-06-16T01:41:53.781Z,14.30
2018-06-16T01:46:57.082Z,14.30
2018-06-16T01:52:00.360Z,14.30
2018-06-16T01:57:03.626Z,14.30
2018-06-16T02:02:06.902Z,14.20
2018-06-16T02:07:10.159Z,14.10
2018-06-16T02:17:16.908Z,14.20
2018-06-16T02:22:20.175Z,14.10
2018-06-16T02:27:23.435Z,14.10
2018-06-16T02:32:27.215Z,13.90
2018-06-16T02:37:30.477Z,13.90
2018-06-16T02:42:33.748Z,14.00
2018-06-16T02:47:37.054Z,14.00
2018-06-16T02:52:40.350Z,13.90
2018-06-16T02:57:43.663Z,13.90
2018-06-16T03:02:46.937Z,13.60
2018-06-16T03:07:50.211Z,13.50
2018-06-16T03:12:53.486Z,13.30
2018-06-16T03:17:56.774Z,13.40
2018-06-16T03:23:00.154Z,13.50
2018-06-16T03:28:03.403Z,13.50
2018-06-16T03:33:06.708Z,13.40
2018-06-16T03:38:09.990Z,13.40
2018-06-16T03:43:13.275Z,13.50
2018-06-16T03:48:16.532Z,13.40
2018-06-16T03:53:19.811Z,13.50
2018-06-16T03:58:23.128Z,13.40
2018-06-16T04:03:26.402Z,13.50
2018-06-16T04:08:29.678Z,13.50
2018-06-16T04:13:33.042Z,13.70
2018-06-16T04:18:36.470Z,13.70
2018-06-16T04:23:39.780Z,13.70
2018-06-16T04:28:43.058Z,13.80
2018-06-16T04:33:46.425Z,13.70
2018-06-16T04:38:49.692Z,13.80
2018-06-16T04:43:52.973Z,14.10
2018-06-16T04:48:56.268Z,14.00
2018-06-16T04:53:59.579Z,14.20
2018-06-16T04:59:02.832Z,14.40
2018-06-16T05:04:06.093Z,14.60
2018-06-16T05:09:11.040Z,15.00
2018-06-16T05:14:14.280Z,15.30
2018-06-16T05:19:17.551Z,15.20
2018-06-16T05:24:20.824Z,15.10
2018-06-16T05:29:24.101Z,15.60
2018-06-16T05:34:27.378Z,16.20
2018-06-16T05:39:30.749Z,16.50
2018-06-16T05:49:37.047Z,17.60
2018-06-16T05:54:40.672Z,17.80
2018-06-16T05:59:43.941Z,17.90
2018-06-16T06:04:47.205Z,17.80
2018-06-16T06:09:50.529Z,18.30
2018-06-16T06:14:53.820Z,18.40
2018-06-16T06:19:57.115Z,19.00
2018-06-16T06:25:00.694Z,19.30
2018-06-16T06:30:03.974Z,18.90
2018-06-16T06:35:07.235Z,19.30
2018-06-16T06:40:10.584Z,20.30
2018-06-16T06:45:14.130Z,21.10
2018-06-16T06:55:20.457Z,21.20
2018-06-16T07:00:23.704Z,20.30
2018-06-16T07:05:26.973Z,20.80
2018-06-16T07:15:33.573Z,21.30
2018-06-16T07:20:36.845Z,22.20
2018-06-16T07:25:40.125Z,22.80
2018-06-16T07:30:43.450Z,23.20
2018-06-16T07:35:46.713Z,23.60
2018-06-16T07:40:51.255Z,24.00
2018-06-16T07:45:54.578Z,23.60
2018-06-16T07:50:57.960Z,22.80
2018-06-16T07:56:01.234Z,23.70
2018-06-16T08:01:04.508Z,23.90
2018-06-16T08:11:10.825Z,24.10
2018-06-16T08:21:17.817Z,24.20
2018-06-16T08:26:21.208Z,24.60
2018-06-16T08:31:25.123Z,24.90
2018-06-16T08:36:28.439Z,24.70
2018-06-16T08:41:31.733Z,25.30
2018-06-16T08:51:38.901Z,25.40
2018-06-16T08:56:42.446Z,25.30
2018-06-16T09:01:45.784Z,25.70
2018-06-16T09:11:52.187Z,26.10
2018-06-16T09:16:57.125Z,26.30
2018-06-16T09:22:00.497Z,26.80
2018-06-16T09:27:03.769Z,26.70
2018-06-16T09:32:07.041Z,26.60
2018-06-16T09:37:10.353Z,26.60
2018-06-16T09:42:13.604Z,26.30
2018-06-16T09:47:16.925Z,26.20
2018-06-16T10:02:26.327Z,26.30
2018-06-16T10:07:29.797Z,25.80
2018-06-16T10:12:33.180Z,26.70
2018-06-16T10:17:39.493Z,27.90
2018-06-16T10:22:46.461Z,28.60
2018-06-16T10:27:49.964Z,29.30
2018-06-16T10:32:53.313Z,28.50
2018-06-16T10:37:56.716Z,28.80
2018-06-16T10:43:00.192Z,29.30
2018-06-16T10:48:04.638Z,30.30
2018-06-16T10:53:07.969Z,30.30
2018-06-16T10:58:12.085Z,30.20
2018-06-16T11:13:22.141Z,29.60
2018-06-16T11:18:25.400Z,29.50
2018-06-16T11:23:28.696Z,29.10
2018-06-16T11:28:32.014Z,27.10
2018-06-16T11:33:35.613Z,28.60
2018-06-16T11:44:18.360Z,30.60
2018-06-16T11:54:27.960Z,30.80
2018-06-16T11:59:31.328Z,30.60
2018-06-16T12:04:34.581Z,30.40
2018-06-16T12:09:38.024Z,30.20
2018-06-16T12:14:42.493Z,30.00
2018-06-16T12:19:48.694Z,32.20
2018-06-16T12:24:56.164Z,31.90
2018-06-16T12:30:06.303Z,31.30
2018-06-16T12:35:09.645Z,31.60
2018-06-16T12:40:13.242Z,31.80
2018-06-16T12:45:16.528Z,28.60
2018-06-16T12:50:19.904Z,30.90
2018-06-16T12:55:23.197Z,32.70
2018-06-16T13:00:26.444Z,33.40
2018-06-16T13:05:29.799Z,34.40
2018-06-16T13:10:33.129Z,33.50
2018-06-16T13:15:36.397Z,32.50
2018-06-16T13:20:39.668Z,32.20
2018-06-16T13:25:42.962Z,33.00
2018-06-16T13:30:46.334Z,32.50
2018-06-16T13:35:49.757Z,33.30
2018-06-16T13:40:53.608Z,31.40
2018-06-16T13:45:57.122Z,31.80
2018-06-16T13:51:00.510Z,32.20
2018-06-16T13:56:03.894Z,33.40
2018-06-16T14:01:07.537Z,33.60
2018-06-16T14:06:11.010Z,33.10
2018-06-16T14:11:14.282Z,33.80
2018-06-16T14:16:19.476Z,33.10
2018-06-16T14:21:24.012Z,31.70
2018-06-16T14:26:27.272Z,30.40
2018-06-16T14:31:30.529Z,30.00
2018-06-16T14:36:33.809Z,29.90
2018-06-16T14:41:37.144Z,29.90
2018-06-16T14:46:40.431Z,30.10
2018-06-16T14:51:43.741Z,29.70
2018-06-16T14:56:47.003Z,29.90
2018-06-16T15:01:50.249Z,29.00
2018-06-16T15:06:53.592Z,28.90
2018-06-16T15:11:57.157Z,29.60
2018-06-16T15:17:00.882Z,30.60
2018-06-16T15:22:04.175Z,30.60
2018-06-16T15:27:08.050Z,29.50
2018-06-16T15:32:11.410Z,29.10
2018-06-16T15:37:15.078Z,28.70
2018-06-16T15:42:18.688Z,28.70
2018-06-16T15:47:22.053Z,28.70
2018-06-16T15:57:28.603Z,28.40
2018-06-16T16:02:31.865Z,27.50
2018-06-16T16:07:35.180Z,27.80
2018-06-16T16:12:38.643Z,27.40
2018-06-16T16:17:41.899Z,27.40
2018-06-16T16:22:45.202Z,27.00
2018-06-16T16:27:48.470Z,26.80
2018-06-16T16:37:54.732Z,26.30
2018-06-16T16:42:57.992Z,26.30
2018-06-16T16:48:01.281Z,26.00
2018-06-16T16:53:04.694Z,26.10
2018-06-16T17:03:11.861Z,26.20
2018-06-16T17:08:15.120Z,26.00
2018-06-16T17:13:18.596Z,26.00
2018-06-16T17:18:21.891Z,26.10
2018-06-16T17:23:25.158Z,25.90
2018-06-16T17:28:28.468Z,25.80
2018-06-16T17:33:31.753Z,25.80
2018-06-16T17:38:35.050Z,25.80
2018-06-16T17:43:38.320Z,25.80
2018-06-16T17:48:41.633Z,25.70
2018-06-16T17:53:44.896Z,25.60
2018-06-16T17:58:48.156Z,25.40
2018-06-16T18:03:51.440Z,27.30
2018-06-16T18:08:54.747Z,25.00
2018-06-16T18:13:58.151Z,25.00
2018-06-16T18:19:01.444Z,24.90
2018-06-16T18:24:04.906Z,24.50
2018-06-16T18:29:08.277Z,24.40
2018-06-16T18:34:11.778Z,24.10
2018-06-16T18:39:15.696Z,23.90
2018-06-16T18:44:18.964Z,23.80
2018-06-16T18:49:23.220Z,23.60
2018-06-16T18:54:26.512Z,23.60
2018-06-16T18:59:30.021Z,21.50
2018-06-16T19:04:33.309Z,23.10
2018-06-16T19:09:36.933Z,22.90
2018-06-16T19:14:40.222Z,22.70
2018-06-16T19:19:43.518Z,22.50
2018-06-16T19:24:47.178Z,22.40
2018-06-16T19:29:50.608Z,22.30
2018-06-16T19:34:53.889Z,22.20
2018-06-16T19:39:57.162Z,22.10
2018-06-16T19:45:00.603Z,21.40
2018-06-16T19:50:04.190Z,21.50
2018-06-16T19:55:07.827Z,21.40
2018-06-16T20:00:11.274Z,21.10
2018-06-16T20:05:14.612Z,21.00
2018-06-16T20:10:17.870Z,20.70
2018-06-16T20:25:27.121Z,20.30
2018-06-16T20:30:30.561Z,20.10
2018-06-16T20:35:34.017Z,20.30
2018-06-16T20:40:37.259Z,20.30
2018-06-16T20:45:40.515Z,20.10
2018-06-16T20:50:43.876Z,19.90
2018-06-16T20:55:47.165Z,19.80
2018-06-16T21:00:50.420Z,19.70
2018-06-16T21:05:53.697Z,19.60
2018-06-16T21:10:57.004Z,19.50
2018-06-16T21:16:00.269Z,19.30
2018-06-16T21:21:03.584Z,19.30
2018-06-16T21:26:06.901Z,15.60
2018-06-16T21:31:10.185Z,19.10
2018-06-16T21:36:13.460Z,19.30
2018-06-16T21:41:16.716Z,19.20
2018-06-16T21:46:20.059Z,19.10
2018-06-16T21:51:23.334Z,18.80
2018-06-16T21:56:26.619Z,18.40
2018-06-16T22:01:31.035Z,18.10
2018-06-16T22:06:34.627Z,17.80
2018-06-16T22:11:37.905Z,17.80
2018-06-16T22:16:41.205Z,18.10
2018-06-16T22:21:44.480Z,18.20
2018-06-16T22:26:47.799Z,18.30
2018-06-16T22:31:51.056Z,18.20
2018-06-16T22:36:54.345Z,18.10
2018-06-16T22:41:57.608Z,18.00
2018-06-16T22:52:03.969Z,18.00
2018-06-16T22:57:07.387Z,17.90
2018-06-16T23:02:10.645Z,17.90
2018-06-16T23:07:13.957Z,17.80
2018-06-16T23:12:17.181Z,17.40
2018-06-16T23:17:20.544Z,17.30
2018-06-16T23:22:23.776Z,17.20
2018-06-16T23:27:27.068Z,17.30
2018-06-16T23:32:30.319Z,17.00
2018-06-16T23:37:33.728Z,16.80
2018-06-16T23:42:36.970Z,16.80
2018-06-16T23:47:40.258Z,16.70
2018-06-16T23:52:43.548Z,16.50
